createdAt,value
2022-12-08T00:04:07.330Z,8.25
2022-12-08T00:06:56.939Z,13.98
2022-12-08T00:14:44.721Z,6.50
2022-12-08T00:17:11.941Z,8.13
2022-12-08T00:19:39.483Z,4.63
2022-12-08T00:22:06.601Z,5.22
2022-12-08T00:24:35.064Z,6.57
2022-12-08T00:27:02.216Z,3.53
2022-12-08T00:29:28.747Z,5.43
2022-12-08T00:31:55.321Z,6.75
2022-12-08T00:34:22.017Z,9.13
2022-12-08T00:40:17.043Z,4.85
2022-12-08T00:42:43.464Z,8.43
2022-12-08T00:45:10.171Z,2.92
2022-12-08T00:47:36.663Z,4.18
2022-12-08T00:50:03.883Z,6.20
2022-12-08T00:52:30.904Z,5.10
2022-12-08T00:54:57.466Z,4.40
2022-12-08T00:57:23.913Z,4.05
2022-12-08T00:59:50.376Z,9.02
2022-12-08T01:02:16.974Z,4.67
2022-12-08T01:04:43.694Z,5.28
2022-12-08T01:07:10.227Z,3.05
2022-12-08T01:09:43.471Z,4.85
2022-12-08T01:12:09.902Z,4.35
2022-12-08T01:14:39.661Z,6.30
2022-12-08T01:17:06.208Z,3.30
2022-12-08T01:19:33.333Z,3.90
2022-12-08T01:21:59.890Z,3.30
2022-12-08T01:24:27.892Z,5.13
2022-12-08T01:26:54.415Z,5.20
2022-12-08T01:29:20.864Z,13.32
2022-12-08T01:31:47.345Z,5.75
2022-12-08T01:34:14.180Z,6.95
2022-12-08T01:36:41.016Z,9.63
2022-12-08T01:39:08.816Z,2.87
2022-12-08T01:41:38.200Z,7.80
2022-12-08T01:44:24.591Z,3.33
2022-12-08T01:46:52.088Z,6.55
2022-12-08T01:49:32.194Z,4.43
2022-12-08T01:52:27.823Z,2.87
2022-12-08T01:55:02.255Z,4.43
2022-12-08T01:57:37.209Z,4.45
2022-12-08T02:00:08.591Z,7.07
2022-12-08T02:02:50.002Z,7.43
2022-12-08T02:05:16.438Z,4.63
2022-12-08T02:07:43.751Z,5.25
2022-12-08T02:10:11.961Z,4.97
2022-12-08T02:12:38.509Z,4.97
2022-12-08T02:15:05.730Z,10.73
2022-12-08T02:17:40.171Z,6.50
2022-12-08T02:20:25.039Z,11.18
2022-12-08T02:23:10.299Z,12.40
2022-12-08T02:25:52.031Z,12.65
2022-12-08T02:28:21.222Z,11.55
2022-12-08T02:30:54.620Z,14.47
2022-12-08T02:33:40.023Z,23.88
2022-12-08T02:36:26.638Z,17.42
2022-12-08T02:38:52.982Z,15.00
2022-12-08T02:41:19.365Z,24.00
2022-12-08T02:43:48.265Z,19.37
2022-12-08T02:46:19.734Z,20.60
2022-12-08T02:48:46.778Z,15.98
2022-12-08T02:51:13.155Z,27.38
2022-12-08T02:53:40.036Z,17.92
2022-12-08T02:56:18.864Z,17.60
2022-12-08T02:58:52.568Z,18.02
2022-12-08T03:01:37.665Z,17.23
2022-12-08T03:04:16.806Z,16.17
2022-12-08T03:06:46.850Z,8.65
2022-12-08T03:09:13.230Z,15.10
2022-12-08T03:11:46.253Z,8.52
2022-12-08T03:14:14.460Z,4.43
2022-12-08T03:16:42.727Z,4.35
2022-12-08T03:19:15.802Z,3.38
2022-12-08T03:21:43.591Z,3.33
2022-12-08T03:24:10.703Z,4.07
2022-12-08T03:26:43.316Z,3.15
2022-12-08T03:29:10.149Z,2.33
2022-12-08T03:31:39.663Z,3.47
2022-12-08T03:34:06.347Z,4.73
2022-12-08T03:38:59.839Z,4.20
2022-12-08T03:43:54.602Z,5.90
2022-12-08T03:48:47.439Z,4.85
2022-12-08T03:51:14.264Z,6.10
2022-12-08T03:53:40.662Z,4.38
2022-12-08T03:56:15.752Z,3.33
2022-12-08T03:58:42.687Z,7.40
2022-12-08T04:01:09.081Z,2.35
2022-12-08T04:03:35.592Z,3.55
2022-12-08T04:06:02.022Z,4.68
2022-12-08T04:08:28.431Z,2.90
2022-12-08T04:10:54.845Z,2.50
2022-12-08T04:13:21.233Z,3.13
2022-12-08T04:15:48.231Z,5.72
2022-12-08T04:18:15.082Z,8.15
2022-12-08T04:20:41.800Z,6.70
2022-12-08T04:23:08.456Z,4.47
2022-12-08T04:25:35.135Z,4.88
2022-12-08T04:28:02.074Z,2.45
2022-12-08T04:32:55.032Z,7.00
2022-12-08T04:35:21.505Z,6.60
2022-12-08T04:37:48.084Z,6.32
2022-12-08T04:40:14.893Z,4.70
2022-12-08T04:42:41.345Z,4.05
2022-12-08T04:45:08.031Z,3.88
2022-12-08T04:47:34.596Z,6.40
2022-12-08T04:50:01.053Z,5.75
2022-12-08T04:52:27.513Z,8.75
2022-12-08T04:54:53.967Z,3.60
2022-12-08T04:57:20.441Z,7.68
2022-12-08T04:59:46.815Z,11.43
2022-12-08T05:02:13.538Z,6.00
2022-12-08T05:04:40.099Z,11.23
2022-12-08T05:07:06.525Z,6.07
2022-12-08T05:09:32.923Z,6.35
2022-12-08T05:11:59.312Z,6.53
2022-12-08T05:14:25.879Z,5.13
2022-12-08T05:16:52.284Z,7.93
2022-12-08T05:19:18.707Z,6.45
2022-12-08T05:21:45.180Z,4.78
2022-12-08T05:24:11.509Z,10.80
2022-12-08T05:26:37.960Z,8.32
2022-12-08T05:29:04.374Z,11.52
2022-12-08T05:31:30.869Z,6.00
2022-12-08T05:34:02.413Z,10.27
2022-12-08T05:36:29.527Z,9.83
2022-12-08T05:38:58.953Z,6.65
2022-12-08T05:41:25.375Z,8.90
2022-12-08T05:43:51.816Z,5.68
2022-12-08T05:46:18.374Z,7.47
2022-12-08T05:48:44.837Z,9.20
2022-12-08T05:51:21.725Z,11.45
2022-12-08T05:53:48.494Z,6.70
2022-12-08T05:56:15.304Z,12.75
2022-12-08T05:58:41.695Z,9.85
2022-12-08T06:01:08.206Z,7.67
2022-12-08T06:03:34.703Z,8.23
2022-12-08T06:06:01.391Z,7.82
2022-12-08T06:08:27.869Z,7.00
2022-12-08T06:10:54.314Z,13.50
2022-12-08T06:13:20.690Z,7.20
2022-12-08T06:15:47.094Z,9.85
2022-12-08T06:18:13.520Z,11.25
2022-12-08T06:20:39.927Z,17.67
2022-12-08T06:23:06.496Z,11.18
2022-12-08T06:25:32.892Z,14.50
2022-12-08T06:27:59.294Z,10.27
2022-12-08T06:30:26.085Z,15.77
2022-12-08T06:32:52.474Z,5.65
2022-12-08T06:35:18.881Z,9.82
2022-12-08T06:37:45.291Z,14.37
2022-12-08T06:40:11.904Z,8.20
2022-12-08T06:42:44.017Z,11.15
2022-12-08T06:45:11.464Z,8.40
2022-12-08T06:47:37.847Z,11.43
2022-12-08T06:50:05.167Z,10.37
2022-12-08T06:52:31.983Z,10.82
2022-12-08T06:54:58.379Z,13.65
2022-12-08T06:57:25.748Z,8.70
2022-12-08T06:59:52.107Z,8.75
2022-12-08T07:02:18.639Z,11.37
2022-12-08T07:04:45.222Z,11.98
2022-12-08T07:07:11.689Z,14.00
2022-12-08T07:09:38.189Z,10.98
2022-12-08T07:12:04.682Z,10.70
2022-12-08T07:14:31.100Z,13.23
2022-12-08T07:16:57.543Z,5.78
2022-12-08T07:19:23.993Z,5.97
2022-12-08T07:21:50.573Z,5.15
2022-12-08T07:24:16.946Z,10.80
2022-12-08T07:26:43.365Z,7.20
2022-12-08T07:29:10.197Z,4.75
2022-12-08T07:31:36.610Z,4.75
2022-12-08T07:34:03.006Z,5.00
2022-12-08T07:36:29.562Z,3.40
2022-12-08T07:38:56.747Z,4.83
2022-12-08T07:41:24.192Z,4.97
2022-12-08T07:43:50.779Z,8.05
2022-12-08T07:46:18.659Z,5.03
2022-12-08T07:48:45.101Z,6.80
2022-12-08T07:51:13.012Z,7.30
2022-12-08T07:53:42.582Z,4.93
2022-12-08T07:56:09.737Z,13.73
2022-12-08T07:58:36.563Z,8.02
2022-12-08T08:01:03.249Z,12.57
2022-12-08T08:03:29.938Z,9.77
2022-12-08T08:06:02.140Z,8.27
2022-12-08T08:08:28.589Z,7.97
2022-12-08T08:10:55.036Z,7.63
2022-12-08T08:13:21.424Z,12.05
2022-12-08T08:18:14.578Z,10.13
2022-12-08T08:20:41.292Z,7.55
2022-12-08T08:23:07.659Z,8.20
2022-12-08T08:25:34.033Z,10.95
2022-12-08T08:28:00.540Z,17.00
2022-12-08T08:30:26.973Z,11.05
2022-12-08T08:32:53.458Z,9.55
2022-12-08T08:35:19.947Z,10.20
2022-12-08T08:37:49.217Z,9.30
2022-12-08T08:40:16.534Z,7.33
2022-12-08T08:45:09.830Z,9.88
2022-12-08T08:47:36.360Z,9.13
2022-12-08T08:50:03.791Z,12.20
2022-12-08T08:52:30.780Z,13.50
2022-12-08T08:54:57.302Z,7.30
2022-12-08T08:57:25.738Z,9.75
2022-12-08T08:59:52.763Z,8.15
2022-12-08T09:02:19.997Z,11.85
2022-12-08T09:04:46.650Z,11.90
2022-12-08T09:07:13.455Z,8.57
2022-12-08T09:09:40.012Z,15.27
2022-12-08T09:12:06.765Z,12.02
2022-12-08T09:14:33.209Z,12.88
2022-12-08T09:16:59.777Z,13.17
2022-12-08T09:19:26.359Z,10.23
2022-12-08T09:21:52.830Z,7.05
2022-12-08T09:24:19.228Z,15.15
2022-12-08T09:26:45.617Z,6.03
2022-12-08T09:29:13.690Z,12.13
2022-12-08T09:31:40.519Z,10.70
2022-12-08T09:34:06.999Z,11.88
2022-12-08T09:36:33.611Z,12.95
2022-12-08T09:39:00.080Z,9.02
2022-12-08T09:41:40.361Z,10.23
2022-12-08T09:44:28.379Z,9.95
2022-12-08T09:46:55.651Z,5.55
2022-12-08T09:49:26.741Z,6.78
2022-12-08T09:51:53.409Z,18.98
2022-12-08T09:54:21.596Z,6.13
2022-12-08T09:56:48.631Z,5.43
2022-12-08T09:59:22.282Z,6.60
2022-12-08T10:01:49.100Z,6.03
2022-12-08T10:04:15.463Z,5.53
2022-12-08T10:06:48.192Z,8.13
2022-12-08T10:09:25.620Z,7.82
2022-12-08T10:12:10.960Z,5.95
2022-12-08T10:14:49.963Z,5.53
2022-12-08T10:17:16.392Z,7.90
2022-12-08T10:19:43.509Z,7.50
2022-12-08T10:22:20.119Z,10.32
2022-12-08T10:24:54.955Z,10.07
2022-12-08T10:27:22.475Z,7.78
2022-12-08T10:29:48.967Z,6.90
2022-12-08T10:32:23.101Z,8.57
2022-12-08T10:35:09.831Z,11.73
2022-12-08T10:37:36.547Z,5.30
2022-12-08T10:40:05.918Z,8.10
2022-12-08T13:22:54.091Z,6.73
2022-12-08T13:25:39.225Z,4.80
2022-12-08T13:28:18.048Z,5.20
2022-12-08T13:30:45.913Z,5.65
2022-12-08T13:33:18.442Z,6.70
2022-12-08T13:35:47.823Z,8.03
2022-12-08T13:38:17.281Z,5.38
2022-12-08T13:40:43.900Z,11.77
2022-12-08T13:43:19.608Z,5.43
2022-12-08T13:49:53.071Z,8.17
2022-12-08T13:57:10.986Z,6.53
2022-12-08T13:59:43.176Z,9.38
2022-12-08T14:02:26.249Z,7.30
2022-12-08T14:07:40.167Z,11.48
2022-12-08T14:10:13.921Z,10.77
2022-12-08T14:12:42.248Z,6.40
2022-12-08T14:15:12.704Z,6.20
2022-12-08T14:17:39.872Z,6.97
2022-12-08T14:20:12.112Z,6.88
2022-12-08T14:22:39.938Z,9.45
2022-12-08T14:25:08.180Z,5.07
2022-12-08T14:27:36.082Z,6.50
2022-12-08T14:30:05.415Z,5.15
2022-12-08T14:32:34.020Z,5.40
2022-12-08T14:35:06.703Z,10.00
2022-12-08T14:37:34.934Z,6.15
2022-12-08T14:40:04.631Z,5.87
2022-12-08T14:42:31.529Z,5.95
2022-12-08T14:45:03.278Z,5.30
2022-12-08T14:47:31.055Z,8.00
2022-12-08T14:49:58.329Z,7.03
2022-12-08T14:52:25.171Z,7.77
2022-12-08T14:54:52.365Z,4.05
2022-12-08T14:57:18.753Z,6.35
2022-12-08T14:59:46.084Z,7.70
2022-12-08T15:02:25.629Z,4.85
2022-12-08T15:05:12.446Z,9.60
2022-12-08T15:07:38.901Z,6.88
2022-12-08T15:10:17.633Z,7.13
2022-12-08T15:13:01.312Z,7.93
2022-12-08T15:15:28.386Z,12.88
2022-12-08T15:17:58.833Z,11.17
2022-12-08T15:20:28.690Z,9.98
2022-12-08T15:22:58.220Z,6.38
2022-12-08T15:25:25.096Z,6.38
2022-12-08T15:27:56.438Z,9.55
2022-12-08T15:30:23.442Z,6.80
2022-12-08T15:32:52.375Z,12.65
2022-12-08T15:35:18.903Z,9.40
2022-12-08T15:37:46.388Z,6.65
2022-12-08T15:40:19.980Z,6.97
2022-12-08T15:42:46.699Z,6.77
2022-12-08T15:45:14.151Z,8.07
2022-12-08T15:47:41.335Z,6.75
2022-12-08T15:50:14.122Z,6.43
2022-12-08T15:52:40.535Z,11.20
2022-12-08T15:55:07.084Z,7.80
2022-12-08T15:58:24.900Z,7.28
2022-12-08T16:00:50.627Z,12.50
2022-12-08T16:03:28.220Z,9.32
2022-12-08T16:06:31.090Z,10.73
2022-12-08T16:08:49.658Z,9.60
2022-12-08T16:15:39.788Z,12.07
2022-12-08T16:17:18.021Z,11.80
2022-12-08T16:19:45.125Z,14.82
2022-12-08T16:25:21.473Z,18.23
2022-12-08T16:28:08.149Z,11.60
2022-12-08T16:30:35.190Z,17.70
2022-12-08T16:33:01.622Z,12.48
2022-12-08T16:35:28.511Z,15.40
2022-12-08T16:37:54.924Z,13.35
2022-12-08T16:40:21.392Z,12.80
2022-12-08T16:42:49.872Z,13.82
2022-12-08T16:45:18.251Z,10.57
2022-12-08T16:47:45.937Z,13.07
2022-12-08T16:50:19.971Z,19.30
2022-12-08T16:52:46.548Z,10.75
2022-12-08T16:55:14.524Z,19.05
2022-12-08T16:57:41.225Z,13.57
2022-12-08T17:00:09.142Z,18.97
2022-12-08T17:02:35.983Z,21.00
2022-12-08T17:05:02.793Z,13.18
2022-12-08T17:07:29.283Z,14.27
2022-12-08T17:09:55.749Z,14.40
2022-12-08T17:12:22.285Z,14.13
2022-12-08T17:14:48.734Z,12.00
2022-12-08T17:17:15.294Z,23.52
2022-12-08T17:19:41.663Z,15.05
2022-12-08T17:22:08.064Z,21.95
2022-12-08T17:24:34.540Z,17.67
2022-12-08T17:27:04.097Z,14.68
2022-12-08T17:29:31.359Z,13.82
2022-12-08T17:31:58.023Z,15.13
2022-12-08T17:34:24.439Z,15.85
2022-12-08T17:36:51.034Z,14.77
2022-12-08T17:41:45.767Z,14.88
2022-12-08T17:44:13.203Z,18.38
2022-12-08T17:46:42.707Z,22.63
2022-12-08T17:49:12.124Z,23.13
2022-12-08T17:51:38.562Z,24.83
2022-12-08T17:54:05.660Z,21.88
2022-12-08T17:56:32.169Z,28.13
2022-12-08T17:58:58.702Z,20.98
2022-12-08T18:01:25.308Z,16.50
2022-12-08T18:03:51.813Z,23.92
2022-12-08T18:06:18.261Z,23.40
2022-12-08T18:08:44.763Z,20.70
2022-12-08T18:11:15.951Z,31.58
2022-12-08T18:13:42.324Z,25.97
2022-12-08T18:16:08.694Z,20.75
2022-12-08T18:18:35.106Z,21.45
2022-12-08T18:21:01.544Z,18.83
2022-12-08T18:23:28.007Z,24.42
2022-12-08T18:25:54.383Z,20.37
2022-12-08T18:28:20.802Z,21.35
2022-12-08T18:30:47.351Z,23.90
2022-12-08T18:33:13.890Z,37.92
2022-12-08T18:35:40.328Z,25.85
2022-12-08T18:38:06.721Z,24.57
2022-12-08T18:40:33.250Z,25.00
2022-12-08T18:42:59.591Z,18.80
2022-12-08T18:45:26.000Z,18.05
2022-12-08T18:47:52.463Z,12.02
2022-12-08T18:50:19.044Z,12.30
2022-12-08T18:52:45.661Z,19.70
2022-12-08T18:55:12.084Z,16.75
2022-12-08T18:57:39.158Z,21.73
2022-12-08T19:00:08.294Z,20.75
2022-12-08T19:02:36.146Z,12.10
2022-12-08T19:05:02.813Z,18.90
2022-12-08T19:07:29.312Z,18.83
2022-12-08T19:09:56.248Z,21.02
2022-12-08T19:12:22.771Z,16.83
2022-12-08T19:14:49.275Z,10.70
2022-12-08T19:17:15.828Z,11.88
2022-12-08T19:19:42.330Z,11.52
2022-12-08T19:22:08.852Z,25.17
2022-12-08T19:24:36.764Z,27.08
2022-12-08T19:27:03.762Z,20.73
2022-12-08T19:29:30.218Z,21.10
2022-12-08T19:31:56.761Z,20.88
2022-12-08T19:34:23.577Z,25.45
2022-12-08T19:36:50.030Z,22.88
2022-12-08T19:39:36.725Z,33.80
2022-12-08T19:42:22.293Z,32.70
2022-12-08T19:44:54.582Z,31.90
2022-12-08T19:47:22.406Z,26.95
2022-12-08T19:49:48.898Z,27.90
2022-12-08T19:52:15.363Z,31.20
2022-12-08T19:54:41.764Z,29.98
2022-12-08T19:57:08.272Z,22.90
2022-12-08T19:59:34.724Z,24.00
2022-12-08T20:02:01.359Z,21.95
2022-12-08T20:04:27.820Z,28.10
2022-12-08T20:06:55.074Z,20.08
2022-12-08T20:09:21.852Z,23.20
2022-12-08T20:11:48.274Z,21.92
2022-12-08T20:14:14.755Z,15.35
2022-12-08T20:16:41.832Z,17.73
2022-12-08T20:19:08.416Z,14.88
2022-12-08T20:21:34.923Z,17.20
2022-12-08T20:24:01.336Z,15.18
2022-12-08T20:26:27.819Z,19.45
2022-12-08T20:28:54.275Z,11.40
2022-12-08T20:31:24.844Z,17.13
2022-12-08T20:33:51.741Z,13.90
2022-12-08T20:36:19.388Z,14.52
2022-12-08T20:38:46.278Z,18.80
2022-12-08T20:41:12.879Z,20.83
2022-12-08T20:43:39.308Z,16.70
2022-12-08T20:46:09.884Z,14.55
2022-12-08T20:48:36.398Z,15.88
2022-12-08T20:51:03.090Z,16.60
2022-12-08T20:53:30.148Z,18.97
2022-12-08T20:55:56.891Z,19.92
2022-12-08T20:58:24.435Z,13.55
2022-12-08T21:00:51.193Z,18.25
2022-12-08T21:03:18.763Z,14.98
2022-12-08T21:05:51.735Z,15.93
2022-12-08T21:08:19.662Z,21.35
2022-12-08T21:10:46.711Z,13.68
2022-12-08T21:13:13.319Z,20.30
2022-12-08T21:15:44.976Z,16.83
2022-12-08T21:18:11.601Z,23.23
2022-12-08T21:20:38.273Z,20.58
2022-12-08T21:23:04.753Z,20.35
2022-12-08T21:25:31.272Z,20.88
2022-12-08T21:27:57.785Z,22.40
2022-12-08T21:30:24.345Z,22.30
2022-12-08T21:32:50.974Z,24.92
2022-12-08T21:35:17.643Z,27.20
2022-12-08T21:37:44.146Z,18.45
2022-12-08T21:40:11.357Z,21.00
2022-12-08T21:42:44.451Z,25.83
2022-12-08T21:45:18.239Z,21.40
2022-12-08T21:47:45.336Z,24.80
2022-12-08T21:50:12.558Z,23.67
2022-12-08T21:52:40.522Z,17.45
2022-12-08T21:55:07.639Z,25.73
2022-12-08T21:57:34.557Z,26.98
2022-12-08T22:00:01.145Z,26.13
2022-12-08T22:02:27.768Z,27.20
2022-12-08T22:04:54.678Z,31.88
2022-12-08T22:07:21.720Z,28.37
2022-12-08T22:09:48.345Z,21.80
2022-12-08T22:12:16.929Z,26.38
2022-12-08T22:14:43.742Z,24.80
2022-12-08T22:17:10.496Z,25.88
2022-12-08T22:19:37.147Z,34.20
2022-12-08T22:22:03.867Z,28.42
2022-12-08T22:24:31.012Z,29.98
2022-12-08T22:26:57.594Z,26.13
2022-12-08T22:29:24.136Z,30.17
2022-12-08T22:31:50.578Z,24.37
2022-12-08T22:34:17.131Z,19.70
2022-12-08T22:36:44.440Z,26.27
2022-12-08T22:39:10.971Z,23.73
2022-12-08T22:41:37.363Z,24.92
2022-12-08T22:44:07.200Z,25.53
2022-12-08T22:46:33.811Z,28.02
2022-12-08T22:49:00.545Z,28.58
2022-12-08T22:51:26.979Z,28.25
2022-12-08T22:53:53.408Z,27.77
2022-12-08T22:56:19.971Z,26.30
2022-12-08T22:58:46.569Z,35.53
2022-12-08T23:01:24.076Z,24.98
2022-12-08T23:03:51.074Z,24.67
2022-12-08T23:06:17.982Z,23.77
2022-12-08T23:08:45.233Z,31.07
2022-12-08T23:11:11.870Z,27.42
2022-12-08T23:13:39.506Z,23.02
2022-12-08T23:16:09.685Z,26.77
2022-12-08T23:18:36.574Z,25.20
2022-12-08T23:21:04.012Z,21.50
2022-12-08T23:23:30.404Z,49.80
2022-12-08T23:25:56.979Z,26.50
2022-12-08T23:28:23.423Z,23.35
2022-12-08T23:30:49.956Z,29.02
2022-12-08T23:33:16.563Z,23.93
2022-12-08T23:35:43.032Z,25.05
2022-12-08T23:38:09.446Z,24.33
2022-12-08T23:40:35.814Z,21.25
2022-12-08T23:43:02.207Z,22.23
2022-12-08T23:45:28.706Z,29.30
2022-12-08T23:47:55.124Z,27.55
2022-12-08T23:50:21.861Z,29.85
2022-12-08T23:52:48.320Z,44.00
2022-12-08T23:55:14.727Z,44.92
2022-12-08T23:57:41.161Z,43.60
